Kezdőlap
METAR-TAF:

METAR-TAF

Repülőterek :

Red Wing Regional Airport

Red Wing, Minnesota, Amerikai Egyesült Államok

földrajzi szélesség: 44-35-25N, földrajzi hosszúság: 092-29-10W, magasság: 239 m

Jelenlegi meteorológiai megfigyelések

A jelentés 16 perccel ezelõtt készült, 16:35 UTC
Délkeleti szél 8 kt
Hőmérséklet 27°C
Páratartalom 66%
Légköri nyomás 1017 hPa
Látótávolság: 16.1 km
Derült ég

METAR: KRGK 131635Z AUTO 13008KT 10SM CLR 27/20 A3002 RMK AO2

Idő: 11:51 (16:51 UTC)


TAF: hiányzik

Meteorológiai megfigyelések és előrejelzések több, mint 4000 repülőtéren (METAR és TAF jelentéseket).

A térképen piros és sárga pontok jelzik az elérhető meteorológiai állomásokat.

Mozgassa az egeret a pont fölött, hogy megjelenjen az állomás neve.

Azután kattintson az időjárási megfigyelések és előrejelzések megtekintéséhez.

A térkép megváltoztatása: kattintson a fekete keresztel jelölt zöld gombra ráközelítéshez, a vonallal jelölt zöld gombra távolításhoz, vagy a zöld nyilakra a szomszédos térképek eléréséhez.


METAR-TAF: